Time;durP1;ratioP1;P1;durP2;ratioP2;P2;SDS_P1;SDS_P2;PMS_P1;PMS_P2;Temp;Humidity;BMP_temperature;BMP_pressure;BME280_temperature;BME280_humidity;BME280_pressure;Samples;Min_cycle;Max_cycle;Signal;HPM_P1;HPM_P2
2022/07/08 00:01:14;;;;;;;1.97;1.07;;;15.70;99.90;;;;;;5072124;28;20172;-70
2022/07/08 00:03:40;;;;;;;1.37;1.27;;;15.70;99.90;;;;;;5071821;28;20777;-70
2022/07/08 00:06:05;;;;;;;2.10;1.50;;;15.70;99.90;;;;;;5071652;28;21172;-71
2022/07/08 00:08:31;;;;;;;1.40;0.70;;;15.50;99.90;;;;;;5071635;28;20229;-71
2022/07/08 00:10:57;;;;;;;8.10;1.77;;;15.50;99.90;;;;;;5071903;28;20211;-70
2022/07/08 00:13:23;;;;;;;3.83;1.37;;;15.40;99.90;;;;;;5071982;28;20162;-71
2022/07/08 00:15:49;;;;;;;8.23;2.10;;;15.40;99.90;;;;;;5071700;28;20439;-71
2022/07/08 00:18:14;;;;;;;1.80;1.33;;;15.30;99.90;;;;;;5070479;28;20888;-71
2022/07/08 00:20:40;;;;;;;4.10;1.63;;;15.30;99.90;;;;;;5071794;28;20178;-71
2022/07/08 00:23:05;;;;;;;1.37;1.17;;;15.30;99.90;;;;;;5074162;28;20166;-70
2022/07/08 00:25:31;;;;;;;1.20;1.10;;;15.30;99.90;;;;;;5075508;28;20253;-71
2022/07/08 00:27:57;;;;;;;3.23;1.33;;;15.30;99.90;;;;;;5075711;28;20162;-70
2022/07/08 00:30:22;;;;;;;2.03;1.10;;;15.30;99.90;;;;;;5075632;28;20600;-72
2022/07/08 00:32:48;;;;;;;2.77;1.17;;;15.40;99.90;;;;;;5075437;28;20527;-71
2022/07/08 00:35:13;;;;;;;2.80;1.33;;;15.40;99.90;;;;;;5075435;28;20249;-72
2022/07/08 00:37:39;;;;;;;2.20;1.10;;;15.50;99.90;;;;;;5075943;28;20169;-71
2022/07/08 00:40:05;;;;;;;1.40;1.30;;;15.50;99.90;;;;;;5075569;28;20190;-70
2022/07/08 00:42:31;;;;;;;2.30;1.00;;;15.50;99.90;;;;;;5076245;28;20177;-71
2022/07/08 00:44:56;;;;;;;2.27;1.50;;;15.60;99.90;;;;;;5075450;28;20925;-70
2022/07/08 00:47:22;;;;;;;1.63;1.30;;;15.60;99.90;;;;;;5075246;28;20181;-70
2022/07/08 00:49:50;;;;;;;2.53;1.40;;;15.60;99.90;;;;;;5075188;28;20237;-71
2022/07/08 00:52:15;;;;;;;1.57;1.10;;;15.60;99.90;;;;;;5073838;28;20178;-71
2022/07/08 00:54:41;;;;;;;3.00;1.13;;;15.60;99.90;;;;;;5074871;28;20491;-70
2022/07/08 00:57:07;;;;;;;1.33;1.00;;;15.50;99.90;;;;;;5075186;28;20170;-70
2022/07/08 00:59:33;;;;;;;3.33;1.60;;;15.40;99.90;;;;;;5074974;28;20481;-70
2022/07/08 01:01:59;;;;;;;2.20;1.50;;;15.40;99.90;;;;;;5073848;28;20404;-70
2022/07/08 01:04:24;;;;;;;4.30;1.83;;;15.30;99.90;;;;;;5074671;28;20173;-70
2022/07/08 01:06:50;;;;;;;4.03;1.50;;;15.20;99.90;;;;;;5073706;28;20177;-71
2022/07/08 01:09:16;;;;;;;6.00;1.33;;;15.20;99.90;;;;;;5074656;28;20198;-70
2022/07/08 01:11:47;;;;;;;1.67;1.20;;;15.10;99.90;;;;;;5075156;28;20162;-70
2022/07/08 01:14:14;;;;;;;1.37;1.10;;;15.10;99.90;;;;;;5074537;28;20409;-70
2022/07/08 01:16:40;;;;;;;8.63;1.70;;;15.10;99.90;;;;;;5073624;28;20495;-70
2022/07/08 01:19:06;;;;;;;3.00;1.13;;;15.10;99.90;;;;;;5075082;28;20524;-71
2022/07/08 01:21:31;;;;;;;3.43;1.33;;;15.10;99.90;;;;;;5074857;28;20272;-71
2022/07/08 01:23:57;;;;;;;2.00;1.27;;;15.10;99.90;;;;;;5076423;28;20170;-70
2022/07/08 01:26:23;;;;;;;3.00;1.67;;;15.10;99.90;;;;;;5074710;28;20265;-71
2022/07/08 01:28:49;;;;;;;1.40;1.00;;;15.10;99.90;;;;;;5075143;28;20228;-70
2022/07/08 01:31:14;;;;;;;3.00;1.00;;;15.20;99.90;;;;;;5074429;28;20397;-70
2022/07/08 01:33:40;;;;;;;3.17;1.50;;;15.20;99.90;;;;;;5073877;28;20189;-70
2022/07/08 01:36:06;;;;;;;1.50;0.90;;;15.20;99.90;;;;;;5072739;28;20170;-70
2022/07/08 01:38:31;;;;;;;1.10;0.80;;;15.20;99.90;;;;;;5074170;28;20236;-70
2022/07/08 01:40:57;;;;;;;1.97;1.10;;;15.30;99.90;;;;;;5073003;28;20448;-70
2022/07/08 01:43:23;;;;;;;1.50;1.00;;;15.30;99.90;;;;;;5074286;28;20166;-70
2022/07/08 01:45:49;;;;;;;3.30;1.40;;;15.30;99.90;;;;;;5072770;28;20643;-71
2022/07/08 01:48:14;;;;;;;1.77;1.43;;;15.40;99.90;;;;;;5074004;28;20439;-70
2022/07/08 01:50:40;;;;;;;1.70;1.00;;;15.40;99.90;;;;;;5074118;28;20162;-70
2022/07/08 01:53:05;;;;;;;7.30;1.40;;;15.40;99.90;;;;;;5072708;28;20184;-70
2022/07/08 01:55:31;;;;;;;1.73;1.23;;;15.40;99.90;;;;;;5073719;28;20166;-70
2022/07/08 01:57:57;;;;;;;3.00;1.57;;;15.40;99.90;;;;;;5072652;28;20643;-70
2022/07/08 02:00:22;;;;;;;5.03;1.27;;;15.40;99.90;;;;;;5072634;28;20162;-70
2022/07/08 02:02:48;;;;;;;1.87;0.90;;;15.50;99.90;;;;;;5072737;28;20174;-72
2022/07/08 02:05:14;;;;;;;1.30;1.00;;;15.50;99.90;;;;;;5073577;28;20231;-71
2022/07/08 02:07:40;;;;;;;1.30;1.03;;;15.50;99.90;;;;;;5073801;28;20647;-71
2022/07/08 02:10:06;;;;;;;1.50;1.40;;;15.50;99.90;;;;;;5073598;28;20462;-70
2022/07/08 02:12:33;;;;;;;3.97;1.30;;;15.40;99.90;;;;;;5072361;28;20407;-71
2022/07/08 02:15:03;;;;;;;1.70;0.90;;;15.40;99.90;;;;;;5073424;28;20400;-70
2022/07/08 02:17:34;;;;;;;1.63;1.23;;;15.30;99.90;;;;;;5073675;28;20397;-70
2022/07/08 02:20:00;;;;;;;4.00;1.00;;;15.20;99.90;;;;;;5072203;28;20483;-70
2022/07/08 02:22:26;;;;;;;2.40;2.20;;;15.20;99.90;;;;;;5072156;28;20404;-70
2022/07/08 02:24:52;;;;;;;5.27;1.20;;;15.10;99.90;;;;;;5073408;28;20198;-70
2022/07/08 02:27:18;;;;;;;3.47;1.40;;;15.00;99.90;;;;;;5073652;28;20412;-70
2022/07/08 02:29:44;;;;;;;2.80;1.20;;;15.00;99.90;;;;;;5074426;28;20202;-70
2022/07/08 02:32:10;;;;;;;1.30;1.20;;;14.90;99.90;;;;;;5073171;28;20947;-72
2022/07/08 02:34:36;;;;;;;1.30;1.07;;;14.90;99.90;;;;;;5071786;28;20411;-72
2022/07/08 02:37:01;;;;;;;1.20;1.10;;;14.90;99.90;;;;;;5074050;28;20175;-70
2022/07/08 02:39:27;;;;;;;4.50;1.20;;;14.90;99.90;;;;;;5073819;28;20244;-71
2022/07/08 02:41:53;;;;;;;2.60;1.20;;;14.80;99.90;;;;;;5074513;28;20667;-71
2022/07/08 02:44:18;;;;;;;5.03;1.57;;;14.80;99.90;;;;;;5071366;28;20174;-70
2022/07/08 02:46:44;;;;;;;4.80;1.20;;;14.70;99.90;;;;;;5072427;28;20170;-71
2022/07/08 02:49:10;;;;;;;1.70;1.03;;;14.70;99.90;;;;;;5072743;28;20760;-71
2022/07/08 02:51:36;;;;;;;1.30;0.93;;;14.60;99.90;;;;;;5072865;28;20492;-71
2022/07/08 02:54:04;;;;;;;1.70;1.20;;;14.60;99.90;;;;;;5073702;28;20617;-70
2022/07/08 02:56:30;;;;;;;4.00;2.47;;;14.50;99.90;;;;;;5073832;28;20397;-70
2022/07/08 02:58:56;;;;;;;2.90;1.60;;;14.50;99.90;;;;;;5072915;28;20436;-70
2022/07/08 03:01:22;;;;;;;2.53;1.27;;;14.50;99.90;;;;;;5073280;28;20829;-70
2022/07/08 03:03:47;;;;;;;1.30;1.00;;;14.50;99.90;;;;;;5074782;28;20530;-70
2022/07/08 03:06:13;;;;;;;3.50;1.70;;;14.40;99.90;;;;;;5072846;28;20415;-71
2022/07/08 03:08:38;;;;;;;2.53;2.20;;;14.40;99.90;;;;;;5072872;28;20198;-71
2022/07/08 03:11:04;;;;;;;3.67;1.87;;;14.40;99.90;;;;;;5072963;28;20646;-70
2022/07/08 03:13:30;;;;;;;2.60;1.50;;;14.40;99.90;;;;;;5073474;28;20162;-70
2022/07/08 03:15:56;;;;;;;1.80;1.70;;;14.50;99.90;;;;;;5072219;28;20159;-70
2022/07/08 03:18:22;;;;;;;1.63;1.10;;;14.50;99.90;;;;;;5072239;28;20437;-70
2022/07/08 03:20:48;;;;;;;1.53;1.20;;;14.50;99.90;;;;;;5071439;28;20435;-71
2022/07/08 03:23:13;;;;;;;2.10;1.17;;;14.50;99.90;;;;;;5072574;28;20188;-70
2022/07/08 03:25:39;;;;;;;2.23;1.60;;;14.60;99.90;;;;;;5070627;28;20174;-70
2022/07/08 03:28:04;;;;;;;4.00;1.33;;;14.60;99.90;;;;;;5070945;28;20532;-70
2022/07/08 03:30:30;;;;;;;1.80;1.27;;;14.60;99.90;;;;;;5072272;28;20201;-70
2022/07/08 03:32:56;;;;;;;3.33;1.40;;;14.60;99.90;;;;;;5072104;28;20564;-70
2022/07/08 03:35:22;;;;;;;14.47;1.73;;;14.60;99.90;;;;;;5071925;28;20419;-70
2022/07/08 03:37:48;;;;;;;3.53;1.63;;;14.60;99.90;;;;;;5071195;28;20828;-71
2022/07/08 03:42:59;;;;;;;2.10;1.00;;;14.70;99.90;;;;;;5072402;28;20184;-71
2022/07/08 03:45:25;;;;;;;1.20;0.97;;;14.70;99.90;;;;;;5071208;28;20790;-70
2022/07/08 03:47:54;;;;;;;2.60;1.33;;;14.70;99.90;;;;;;5072397;28;20495;-71
2022/07/08 03:50:19;;;;;;;5.23;1.70;;;14.80;99.90;;;;;;5073498;28;20205;-70
2022/07/08 03:52:46;;;;;;;1.33;1.10;;;14.80;99.90;;;;;;5073566;28;20559;-71
2022/07/08 03:55:11;;;;;;;1.67;1.20;;;14.80;99.90;;;;;;5072883;28;20170;-71
2022/07/08 03:57:37;;;;;;;2.07;1.37;;;14.80;99.90;;;;;;5071587;28;20412;-70
2022/07/08 04:00:04;;;;;;;2.33;1.43;;;14.80;99.90;;;;;;5070466;28;20197;-70
2022/07/08 04:02:30;;;;;;;6.50;1.73;;;14.80;99.90;;;;;;5070859;28;20181;-70
2022/07/08 04:04:55;;;;;;;4.30;1.50;;;14.80;99.90;;;;;;5071638;28;20412;-70
2022/07/08 04:07:21;;;;;;;2.20;1.70;;;14.80;99.90;;;;;;5070890;28;20631;-71
2022/07/08 04:09:46;;;;;;;5.00;1.23;;;14.80;99.90;;;;;;5070491;28;20205;-70
2022/07/08 04:12:12;;;;;;;1.87;1.17;;;14.80;99.90;;;;;;5070662;28;20170;-70
2022/07/08 04:14:38;;;;;;;1.50;1.20;;;14.70;99.90;;;;;;5070635;28;20178;-70
2022/07/08 04:17:03;;;;;;;1.30;1.20;;;14.70;99.90;;;;;;5072566;28;20170;-70
2022/07/08 04:19:29;;;;;;;2.27;1.23;;;14.60;99.90;;;;;;5070449;28;20833;-70
2022/07/08 04:21:55;;;;;;;6.00;1.77;;;14.60;99.90;;;;;;5070474;28;20672;-70
2022/07/08 04:24:20;;;;;;;1.70;1.10;;;14.50;99.90;;;;;;5071469;28;20643;-70
2022/07/08 04:26:46;;;;;;;3.13;1.60;;;14.50;99.90;;;;;;5071796;28;20254;-71
2022/07/08 04:29:11;;;;;;;2.03;1.30;;;14.50;99.90;;;;;;5071499;28;20305;-70
2022/07/08 04:31:37;;;;;;;1.43;1.30;;;14.50;99.90;;;;;;5070577;28;20170;-71
2022/07/08 04:34:02;;;;;;;2.13;1.73;;;14.50;99.90;;;;;;5071556;28;20206;-70
2022/07/08 04:36:28;;;;;;;4.33;2.30;;;14.60;99.90;;;;;;5071379;28;20197;-71
2022/07/08 04:38:54;;;;;;;1.20;1.10;;;14.60;99.90;;;;;;5071607;28;20197;-71
2022/07/08 04:41:19;;;;;;;2.00;1.13;;;14.70;99.90;;;;;;5070309;28;20674;-70
2022/07/08 04:43:45;;;;;;;2.27;1.30;;;14.70;99.90;;;;;;5070212;28;20174;-70
2022/07/08 04:46:14;;;;;;;1.73;1.50;;;14.70;99.90;;;;;;5069956;28;20174;-71
2022/07/08 04:48:41;;;;;;;7.23;1.37;;;14.70;99.90;;;;;;5070211;28;20202;-70
2022/07/08 04:51:07;;;;;;;1.93;1.33;;;14.70;99.90;;;;;;5070462;28;20412;-70
2022/07/08 04:53:33;;;;;;;7.13;1.53;;;14.70;99.90;;;;;;5071598;28;20427;-71
2022/07/08 04:55:58;;;;;;;2.50;1.57;;;14.60;99.90;;;;;;5071048;28;20462;-71
2022/07/08 04:58:24;;;;;;;2.43;1.67;;;14.60;99.90;;;;;;5071244;28;20597;-71
2022/07/08 05:00:50;;;;;;;3.00;1.50;;;14.60;99.90;;;;;;5071412;28;20171;-71
2022/07/08 05:03:15;;;;;;;1.70;1.40;;;14.70;99.90;;;;;;5071248;28;20194;-71
2022/07/08 05:05:41;;;;;;;1.77;1.00;;;14.70;99.90;;;;;;5070988;28;20181;-71
2022/07/08 05:08:06;;;;;;;1.80;1.40;;;14.80;99.90;;;;;;5071622;28;20186;-72
2022/07/08 05:10:32;;;;;;;1.00;0.80;;;14.80;99.90;;;;;;5073596;28;20204;-71
2022/07/08 05:12:58;;;;;;;5.30;1.40;;;14.90;99.90;;;;;;5073547;28;20171;-70
2022/07/08 05:15:25;;;;;;;2.97;1.47;;;15.00;99.90;;;;;;5074337;28;20173;-70
2022/07/08 05:17:53;;;;;;;3.73;1.53;;;15.10;99.90;;;;;;5073690;28;20465;-71
2022/07/08 05:20:19;;;;;;;2.83;1.10;;;15.20;99.90;;;;;;5075166;28;20451;-70
2022/07/08 05:22:45;;;;;;;1.60;1.50;;;15.30;99.90;;;;;;5076432;28;20905;-71
2022/07/08 05:25:11;;;;;;;1.63;0.93;;;15.40;99.90;;;;;;5074899;28;20578;-71
2022/07/08 05:27:37;;;;;;;2.27;1.10;;;15.50;99.90;;;;;;5075834;28;20170;-71
2022/07/08 05:30:05;;;;;;;1.97;1.40;;;15.60;99.90;;;;;;5074510;28;20900;-71
2022/07/08 05:32:31;;;;;;;1.40;1.00;;;15.70;99.90;;;;;;5075404;28;20404;-71
2022/07/08 05:34:57;;;;;;;3.53;1.07;;;15.80;99.90;;;;;;5072646;28;20415;-71
2022/07/08 05:37:22;;;;;;;1.93;1.37;;;16.00;99.90;;;;;;5073059;28;20181;-69
2022/07/08 05:39:48;;;;;;;1.93;1.20;;;16.20;99.90;;;;;;5073082;28;20225;-70
2022/07/08 05:42:13;;;;;;;2.47;1.10;;;16.40;99.90;;;;;;5072931;28;20170;-70
2022/07/08 05:44:39;;;;;;;5.97;1.63;;;16.50;99.90;;;;;;5074175;28;20240;-71
2022/07/08 05:47:09;;;;;;;5.07;1.20;;;16.70;99.90;;;;;;5074232;28;20166;-71
2022/07/08 05:49:36;;;;;;;2.53;1.10;;;16.90;99.90;;;;;;5073351;28;20463;-70
2022/07/08 05:52:05;;;;;;;2.73;1.73;;;17.30;99.90;;;;;;5075760;28;20479;-70
2022/07/08 05:54:31;;;;;;;1.30;1.10;;;17.80;99.90;;;;;;5074129;28;20405;-69
2022/07/08 05:56:57;;;;;;;2.60;1.00;;;18.20;99.90;;;;;;5074178;28;20404;-69
2022/07/08 05:59:23;;;;;;;3.87;1.43;;;18.70;99.90;;;;;;5073914;28;20424;-69
2022/07/08 06:01:48;;;;;;;3.50;1.00;;;19.20;99.90;;;;;;5074013;28;20409;-69
2022/07/08 06:04:14;;;;;;;2.80;1.17;;;19.70;99.90;;;;;;5072573;28;20182;-70
2022/07/08 06:06:39;;;;;;;4.27;1.00;;;20.10;99.90;;;;;;5074024;28;20170;-71
2022/07/08 06:09:05;;;;;;;4.20;1.60;;;20.50;99.90;;;;;;5074448;28;20251;-72
2022/07/08 06:11:31;;;;;;;3.10;1.53;;;20.80;99.90;;;;;;5072654;28;20257;-72
2022/07/08 06:13:56;;;;;;;1.50;1.00;;;21.20;99.90;;;;;;5073770;28;20632;-72
2022/07/08 06:16:22;;;;;;;1.70;1.20;;;21.70;99.90;;;;;;5072273;28;20228;-71
2022/07/08 06:18:47;;;;;;;2.03;0.90;;;22.00;99.90;;;;;;5072155;28;20746;-70
2022/07/08 06:21:13;;;;;;;3.30;1.20;;;22.50;99.90;;;;;;5072455;28;20628;-71
2022/07/08 06:23:39;;;;;;;3.83;1.50;;;22.90;99.90;;;;;;5073482;28;20170;-70
2022/07/08 06:26:04;;;;;;;1.67;1.10;;;23.60;99.90;;;;;;5073318;28;20178;-69
2022/07/08 06:28:30;;;;;;;2.80;1.30;;;24.10;99.90;;;;;;5073236;28;20194;-71
2022/07/08 06:30:56;;;;;;;1.00;0.80;;;24.50;96.40;;;;;;5071986;28;20705;-70
2022/07/08 06:33:21;;;;;;;2.37;1.40;;;24.90;93.30;;;;;;5073317;28;20663;-71
2022/07/08 06:35:47;;;;;;;2.90;0.90;;;25.40;91.10;;;;;;5071695;28;20586;-70
2022/07/08 06:38:13;;;;;;;1.30;1.13;;;25.90;85.80;;;;;;5073183;28;20187;-71
2022/07/08 06:40:38;;;;;;;3.10;1.43;;;26.30;80.70;;;;;;5073051;28;20213;-69
2022/07/08 06:43:04;;;;;;;2.10;1.17;;;25.90;80.80;;;;;;5072832;28;20174;-69
2022/07/08 06:45:32;;;;;;;1.23;1.00;;;25.90;79.70;;;;;;5072691;28;20174;-71
2022/07/08 06:47:58;;;;;;;1.77;1.00;;;25.80;77.50;;;;;;5073053;28;20572;-71
2022/07/08 06:50:24;;;;;;;1.60;1.10;;;25.40;77.50;;;;;;5072891;28;20463;-71
2022/07/08 06:52:49;;;;;;;1.80;1.30;;;25.40;81.10;;;;;;5073061;28;20420;-71
2022/07/08 06:55:15;;;;;;;1.70;0.80;;;25.90;78.80;;;;;;5072595;28;20166;-71
2022/07/08 06:57:41;;;;;;;3.23;0.90;;;25.70;75.70;;;;;;5072873;28;20170;-71
2022/07/08 07:00:07;;;;;;;2.80;1.10;;;25.60;76.50;;;;;;5072729;28;20464;-70
2022/07/08 07:02:33;;;;;;;1.60;1.00;;;26.30;77.80;;;;;;5072784;28;20182;-69
2022/07/08 07:04:59;;;;;;;3.60;1.20;;;26.60;73.10;;;;;;5072454;28;20409;-70
2022/07/08 07:07:24;;;;;;;1.30;1.07;;;26.30;72.80;;;;;;5072736;28;20271;-71
2022/07/08 07:09:50;;;;;;;3.17;2.00;;;26.20;74.50;;;;;;5072419;28;20200;-71
2022/07/08 07:12:16;;;;;;;2.17;1.37;;;26.60;70.40;;;;;;5071384;28;20819;-69
2022/07/08 07:14:42;;;;;;;2.70;0.90;;;26.60;72.20;;;;;;5070827;28;20247;-70
2022/07/08 07:17:07;;;;;;;2.73;1.30;;;27.10;68.30;;;;;;5072560;28;20174;-71
2022/07/08 07:19:33;;;;;;;4.13;1.27;;;28.20;67.20;;;;;;5072360;28;20301;-70
2022/07/08 07:21:58;;;;;;;5.03;1.10;;;29.40;60.30;;;;;;5072389;28;20215;-71
2022/07/08 07:24:24;;;;;;;3.37;1.10;;;29.90;56.00;;;;;;5072081;28;20189;-70
2022/07/08 07:26:49;;;;;;;1.60;1.10;;;30.40;55.60;;;;;;5072159;28;20251;-71
2022/07/08 07:29:15;;;;;;;1.53;1.00;;;31.20;53.40;;;;;;5072139;28;20609;-71
2022/07/08 07:31:41;;;;;;;1.20;1.00;;;31.90;50.60;;;;;;5071721;28;20173;-71
2022/07/08 07:34:07;;;;;;;3.00;1.43;;;32.80;47.60;;;;;;5072181;28;20540;-70
2022/07/08 07:36:33;;;;;;;3.33;1.87;;;33.60;45.90;;;;;;5071883;28;20659;-71
2022/07/08 07:38:59;;;;;;;1.40;1.20;;;33.80;43.70;;;;;;5072064;28;20428;-71
2022/07/08 07:41:24;;;;;;;1.33;1.00;;;33.20;43.10;;;;;;5072109;28;20189;-71
2022/07/08 07:43:50;;;;;;;3.30;1.83;;;32.90;43.30;;;;;;5072083;28;20396;-72
2022/07/08 07:46:16;;;;;;;5.60;1.33;;;32.10;44.40;;;;;;5070605;28;20174;-69
2022/07/08 07:48:42;;;;;;;2.13;1.40;;;31.10;45.00;;;;;;5070741;28;20237;-70
2022/07/08 07:51:08;;;;;;;1.30;1.03;;;30.00;46.00;;;;;;5072025;28;20433;-70
2022/07/08 07:53:33;;;;;;;1.47;0.90;;;29.90;47.90;;;;;;5071894;28;20228;-71
2022/07/08 07:55:59;;;;;;;2.60;1.23;;;30.30;48.10;;;;;;5071705;28;20170;-71
2022/07/08 07:58:25;;;;;;;2.33;1.20;;;31.30;46.20;;;;;;5071863;28;20267;-71
2022/07/08 08:00:52;;;;;;;2.40;1.50;;;32.00;45.40;;;;;;5072054;28;20173;-71
2022/07/08 08:03:18;;;;;;;1.20;0.97;;;33.10;44.20;;;;;;5071842;28;20400;-71
2022/07/08 08:05:43;;;;;;;8.60;1.20;;;34.00;42.10;;;;;;5071581;28;20396;-71
2022/07/08 08:08:10;;;;;;;3.77;1.47;;;34.80;41.10;;;;;;5071788;28;20182;-71
2022/07/08 08:10:36;;;;;;;4.33;1.40;;;35.60;39.50;;;;;;5071793;28;20866;-72
2022/07/08 08:13:02;;;;;;;2.63;1.30;;;36.30;38.60;;;;;;5071862;28;20435;-72
2022/07/08 08:15:29;;;;;;;1.60;1.50;;;37.20;37.90;;;;;;5071549;28;20577;-72
2022/07/08 08:17:56;;;;;;;2.17;1.30;;;37.40;35.30;;;;;;5071780;28;20166;-72
2022/07/08 08:20:27;;;;;;;2.90;1.43;;;38.30;35.70;;;;;;5071837;28;20396;-72
2022/07/08 08:22:52;;;;;;;2.90;1.97;;;38.40;34.10;;;;;;5071756;28;20383;-72
2022/07/08 08:25:19;;;;;;;2.37;1.30;;;38.10;34.60;;;;;;5071424;28;20379;-72
2022/07/08 08:27:45;;;;;;;1.87;1.77;;;38.10;34.20;;;;;;5071698;28;20170;-72
2022/07/08 08:30:12;;;;;;;1.80;1.50;;;38.20;33.30;;;;;;5071525;28;20437;-72
2022/07/08 08:32:38;;;;;;;4.10;1.73;;;38.30;33.40;;;;;;5071643;28;20158;-72
2022/07/08 08:35:04;;;;;;;1.70;1.53;;;38.40;32.90;;;;;;5071215;28;20396;-72
2022/07/08 08:37:30;;;;;;;2.70;1.47;;;38.70;32.90;;;;;;5071571;28;20414;-72
2022/07/08 08:39:55;;;;;;;2.47;1.73;;;39.20;32.50;;;;;;5071619;28;20454;-72
2022/07/08 08:42:23;;;;;;;6.37;1.70;;;39.70;32.30;;;;;;5071535;28;20174;-72
2022/07/08 08:44:49;;;;;;;3.20;1.50;;;40.10;32.20;;;;;;5074525;28;20170;-72
2022/07/08 08:47:16;;;;;;;2.00;1.50;;;40.60;30.80;;;;;;5075422;28;20382;-72
2022/07/08 08:49:42;;;;;;;2.73;2.23;;;39.90;30.50;;;;;;5075128;28;20434;-72
2022/07/08 08:52:10;;;;;;;2.13;1.57;;;39.50;31.50;;;;;;5073901;28;20379;-72
2022/07/08 08:54:36;;;;;;;3.77;2.07;;;39.70;31.60;;;;;;5073580;28;20417;-72
2022/07/08 08:57:04;;;;;;;1.93;1.73;;;39.70;31.20;;;;;;5075132;28;20428;-72
2022/07/08 08:59:30;;;;;;;2.23;1.40;;;40.10;30.70;;;;;;5073949;28;20489;-71
2022/07/08 09:01:57;;;;;;;2.27;1.50;;;40.90;30.40;;;;;;5073858;28;20431;-71
2022/07/08 09:04:23;;;;;;;1.40;1.30;;;40.40;29.90;;;;;;5073418;28;20173;-71
2022/07/08 09:06:48;;;;;;;3.13;1.70;;;40.50;30.60;;;;;;5074931;28;20404;-72
2022/07/08 09:09:14;;;;;;;1.97;1.60;;;40.70;30.30;;;;;;5073584;28;20470;-72
2022/07/08 09:11:40;;;;;;;2.93;2.63;;;41.00;30.00;;;;;;5074861;28;20246;-72
2022/07/08 09:14:22;;;;;;;2.00;1.90;;;41.30;29.40;;;;;;5074826;28;20588;-72
2022/07/08 09:17:10;;;;;;;1.90;1.57;;;41.80;29.20;;;;;;5074778;28;20375;-72
2022/07/08 09:19:36;;;;;;;2.70;2.40;;;41.60;28.50;;;;;;5074865;28;20490;-72
2022/07/08 09:22:02;;;;;;;2.00;1.40;;;42.50;28.80;;;;;;5074948;28;20408;-72
2022/07/08 09:24:28;;;;;;;1.50;1.30;;;42.70;28.50;;;;;;5074389;28;20462;-72
2022/07/08 09:26:55;;;;;;;1.40;1.30;;;42.40;28.10;;;;;;5074609;28;20237;-72
2022/07/08 09:29:21;;;;;;;1.63;1.53;;;42.50;28.00;;;;;;5074346;28;20296;-72
2022/07/08 09:31:47;;;;;;;2.47;2.03;;;43.10;28.00;;;;;;5074528;28;20470;-72
2022/07/08 09:34:16;;;;;;;3.17;1.80;;;43.40;28.40;;;;;;5074316;28;20370;-73
2022/07/08 09:36:49;;;;;;;2.23;2.03;;;43.90;28.10;;;;;;5074443;28;20166;-71
2022/07/08 09:39:27;;;;;;;3.30;1.80;;;44.40;27.70;;;;;;5073061;28;20940;-71
2022/07/08 09:41:53;;;;;;;3.50;1.90;;;44.60;26.70;;;;;;5074296;28;20816;-72
2022/07/08 09:44:22;;;;;;;1.60;1.50;;;45.10;27.10;;;;;;5074109;28;20891;-71
2022/07/08 09:46:49;;;;;;;4.60;2.03;;;45.20;26.30;;;;;;5074311;28;20379;-72
2022/07/08 09:49:32;;;;;;;1.73;1.50;;;45.40;26.60;;;;;;5072834;28;20506;-72
2022/07/08 09:51:59;;;;;;;1.77;1.60;;;45.50;25.60;;;;;;5074137;28;20445;-72
2022/07/08 09:54:26;;;;;;;1.40;1.30;;;45.30;26.40;;;;;;5073375;28;20371;-72
2022/07/08 09:56:59;;;;;;;2.40;1.50;;;45.80;25.80;;;;;;5074062;28;20771;-72
2022/07/08 09:59:25;;;;;;;1.77;1.67;;;45.90;26.40;;;;;;5073991;28;20399;-72
2022/07/08 10:01:54;;;;;;;2.13;1.80;;;46.20;25.90;;;;;;5072750;28;20387;-72
2022/07/08 10:04:22;;;;;;;2.03;1.93;;;46.40;25.50;;;;;;5072463;28;20170;-72
2022/07/08 10:06:48;;;;;;;1.63;1.53;;;46.50;25.70;;;;;;5073984;28;20825;-72
2022/07/08 10:09:14;;;;;;;3.07;2.00;;;46.50;25.20;;;;;;5073823;28;20543;-72
2022/07/08 10:11:41;;;;;;;3.87;2.20;;;47.10;25.00;;;;;;5073858;28;20208;-72
2022/07/08 10:14:08;;;;;;;2.70;2.10;;;47.20;25.20;;;;;;5073933;28;20165;-72
2022/07/08 10:16:34;;;;;;;2.03;1.90;;;47.70;26.00;;;;;;5072279;28;20976;-72
2022/07/08 10:19:03;;;;;;;1.80;1.70;;;47.60;25.30;;;;;;5073739;28;20395;-72
2022/07/08 10:21:32;;;;;;;2.20;2.03;;;47.20;25.70;;;;;;5073714;28;20375;-72
2022/07/08 10:23:58;;;;;;;2.90;1.67;;;46.70;24.80;;;;;;5073567;28;20437;-72
2022/07/08 10:26:28;;;;;;;3.90;2.17;;;45.60;24.90;;;;;;5073214;28;20400;-72
2022/07/08 10:29:08;;;;;;;5.33;2.23;;;45.00;25.70;;;;;;5073297;28;20472;-72
2022/07/08 10:31:51;;;;;;;2.07;1.53;;;44.80;25.60;;;;;;5072124;28;20385;-71
2022/07/08 10:34:22;;;;;;;1.50;1.40;;;44.60;26.40;;;;;;5073132;28;20457;-72
2022/07/08 10:36:53;;;;;;;7.13;2.00;;;44.70;26.60;;;;;;5073264;28;20397;-72
2022/07/08 10:39:30;;;;;;;1.60;1.47;;;45.60;26.30;;;;;;5073227;28;20956;-72
2022/07/08 10:42:01;;;;;;;2.33;2.17;;;45.90;26.20;;;;;;5073318;28;20404;-71
2022/07/08 10:44:58;;;;;;;3.30;1.70;;;45.30;25.50;;;;;;5072786;28;21212;-71
2022/07/08 10:47:31;;;;;;;4.80;1.97;;;44.10;25.90;;;;;;5028674;28;20387;-71
2022/07/08 10:50:05;;;;;;;2.03;1.20;;;42.70;26.60;;;;;;5072963;28;20452;-71
2022/07/08 10:52:33;;;;;;;1.50;1.40;;;41.20;27.50;;;;;;5072837;28;20414;-71
2022/07/08 10:55:12;;;;;;;3.63;2.00;;;40.10;27.90;;;;;;5072302;28;20372;-70
2022/07/08 10:57:53;;;;;;;2.43;2.23;;;39.40;29.50;;;;;;5072412;28;20869;-71
2022/07/08 11:00:18;;;;;;;1.90;1.60;;;39.00;29.90;;;;;;5072916;28;20501;-71
2022/07/08 11:02:46;;;;;;;2.70;1.43;;;39.20;30.00;;;;;;5072724;28;20440;-71
2022/07/08 11:05:33;;;;;;;3.00;1.90;;;39.70;30.40;;;;;;5071798;28;20611;-71
2022/07/08 11:08:20;;;;;;;2.23;1.80;;;41.10;29.10;;;;;;5072056;28;20401;-71
2022/07/08 11:10:51;;;;;;;4.63;2.10;;;42.30;28.30;;;;;;5070967;28;20456;-71
2022/07/08 11:13:21;;;;;;;2.53;1.60;;;42.50;28.20;;;;;;5072330;28;20472;-71
2022/07/08 11:15:47;;;;;;;1.90;1.80;;;42.30;27.60;;;;;;5070974;28;20931;-71
2022/07/08 11:18:20;;;;;;;3.57;2.17;;;41.70;28.30;;;;;;5072270;28;20411;-71
2022/07/08 11:20:46;;;;;;;2.30;1.53;;;40.90;28.60;;;;;;5072338;28;20178;-71
2022/07/08 11:23:12;;;;;;;2.70;1.37;;;40.00;28.50;;;;;;5072082;28;20387;-71
2022/07/08 11:25:37;;;;;;;3.03;1.47;;;40.20;28.80;;;;;;5071986;28;20170;-71
2022/07/08 11:28:18;;;;;;;1.90;1.30;;;40.30;28.90;;;;;;5071999;28;20224;-71
2022/07/08 11:30:43;;;;;;;3.10;1.73;;;41.20;29.70;;;;;;5072060;28;20212;-71
2022/07/08 11:33:09;;;;;;;1.70;1.57;;;42.00;28.70;;;;;;5072046;28;20375;-71
2022/07/08 11:35:38;;;;;;;1.80;1.60;;;42.00;28.30;;;;;;5071797;28;20166;-71
2022/07/08 11:38:04;;;;;;;2.40;1.53;;;41.20;27.80;;;;;;5071831;28;20174;-71
2022/07/08 11:40:40;;;;;;;1.53;1.43;;;40.20;29.00;;;;;;5072004;28;20404;-71
2022/07/08 11:43:05;;;;;;;2.17;1.60;;;39.00;29.00;;;;;;5071953;28;20174;-71
2022/07/08 11:45:31;;;;;;;2.37;1.63;;;38.10;30.00;;;;;;5071546;28;20428;-71
2022/07/08 11:48:06;;;;;;;1.83;1.60;;;38.20;31.00;;;;;;5071738;28;20578;-71
2022/07/08 11:50:32;;;;;;;3.10;1.40;;;39.40;31.90;;;;;;5071728;28;20459;-71
2022/07/08 11:52:57;;;;;;;2.10;1.90;;;40.90;30.00;;;;;;5070423;28;20941;-72
2022/07/08 11:55:23;;;;;;;3.20;2.00;;;42.40;29.80;;;;;;5071506;28;20224;-71
2022/07/08 11:57:49;;;;;;;1.93;1.70;;;43.50;28.20;;;;;;5071633;28;20231;-71
2022/07/08 12:00:14;;;;;;;2.97;1.83;;;43.50;27.90;;;;;;5071619;28;20662;-71
2022/07/08 12:02:40;;;;;;;1.70;1.60;;;43.30;27.20;;;;;;5071750;28;20177;-71
2022/07/08 12:05:10;;;;;;;1.70;1.60;;;42.70;28.20;;;;;;5071422;28;20193;-71
2022/07/08 12:07:37;;;;;;;6.73;1.50;;;42.50;27.80;;;;;;5071577;28;20409;-71
2022/07/08 12:10:05;;;;;;;2.53;1.50;;;42.80;28.70;;;;;;5071484;28;20481;-71
2022/07/08 12:12:35;;;;;;;2.30;1.80;;;43.30;28.50;;;;;;5071598;28;20403;-71
2022/07/08 12:15:11;;;;;;;2.77;1.83;;;43.80;27.40;;;;;;5071296;28;20375;-73
2022/07/08 12:17:37;;;;;;;3.20;1.93;;;43.30;27.40;;;;;;5073300;28;20669;-73
2022/07/08 12:20:03;;;;;;;2.03;1.83;;;43.80;28.30;;;;;;5075095;28;20399;-72
2022/07/08 12:22:46;;;;;;;2.57;1.63;;;44.60;28.30;;;;;;5076350;28;20220;-73
2022/07/08 12:25:16;;;;;;;3.93;1.80;;;44.80;27.60;;;;;;5075869;28;20166;-71
2022/07/08 12:27:43;;;;;;;1.50;1.40;;;44.80;27.60;;;;;;5075167;28;20387;-73
2022/07/08 12:30:09;;;;;;;2.33;1.77;;;44.10;27.40;;;;;;5074644;28;20446;-72
2022/07/08 12:32:40;;;;;;;2.87;1.70;;;42.90;27.60;;;;;;5075728;28;20402;-72
2022/07/08 12:35:10;;;;;;;3.30;1.77;;;41.60;28.40;;;;;;5075509;28;20834;-71
2022/07/08 12:37:36;;;;;;;1.77;1.57;;;40.70;29.10;;;;;;5075679;28;20363;-71
2022/07/08 12:40:16;;;;;;;1.63;1.30;;;39.90;29.90;;;;;;5075418;28;20527;-71
2022/07/08 12:42:41;;;;;;;1.97;1.40;;;39.00;31.40;;;;;;5075477;28;20404;-71
2022/07/08 12:45:15;;;;;;;2.27;1.43;;;37.80;31.70;;;;;;5075065;28;20461;-70
2022/07/08 12:47:41;;;;;;;2.30;1.33;;;36.90;32.50;;;;;;5074247;28;20852;-70
2022/07/08 12:50:06;;;;;;;3.60;1.40;;;36.80;33.20;;;;;;5075124;28;20452;-71